Аэропорт: Гумрак. Волгоград

ICAO: URWW

METAR:
2021-04-21 20:00:00
URWW 212000Z 19004MPS CAVOK 10/07 Q1020 R24/010070 TEMPO BKN004
METAR:
2021-04-21 16:58:00
TAF URWW 211658Z 2118/2203 21003G08MPS 6000 BKN016 BKN020CB TEMPO 2118/2121 18005G10MPS PROB40 TEMPO 2118/2121 -TSRAGR TEMPO 2121/2203 25003G08MPS